sensor_id;sensor_type;location;lat;lon;timestamp;pressure;altitude;pressure_sealevel;temperature;humidity
12213;BME280;6169;44.158;22.788;2023-05-22T00:01:39;100979.28;;;18.45;67.17
12213;BME280;6169;44.158;22.788;2023-05-22T00:06:42;100972.34;;;18.58;66.48
12213;BME280;6169;44.158;22.788;2023-05-22T00:11:46;100978.56;;;18.24;67.65
12213;BME280;6169;44.158;22.788;2023-05-22T00:16:48;100971.16;;;18.14;67.41
12213;BME280;6169;44.158;22.788;2023-05-22T00:21:51;100970.75;;;18.46;66.82
12213;BME280;6169;44.158;22.788;2023-05-22T00:26:55;100973.09;;;18.14;67.65
12213;BME280;6169;44.158;22.788;2023-05-22T00:31:57;100971.00;;;18.50;65.43
12213;BME280;6169;44.158;22.788;2023-05-22T00:36:59;100974.22;;;18.62;65.04
12213;BME280;6169;44.158;22.788;2023-05-22T00:42:03;100966.53;;;18.59;65.39
12213;BME280;6169;44.158;22.788;2023-05-22T00:47:05;100962.00;;;18.84;63.62
12213;BME280;6169;44.158;22.788;2023-05-22T00:52:09;100967.16;;;18.96;63.17
12213;BME280;6169;44.158;22.788;2023-05-22T00:57:13;100967.44;;;18.94;62.70
12213;BME280;6169;44.158;22.788;2023-05-22T01:02:15;100957.41;;;18.74;62.21
12213;BME280;6169;44.158;22.788;2023-05-22T01:07:17;100959.75;;;18.46;63.68
12213;BME280;6169;44.158;22.788;2023-05-22T01:12:31;100949.06;;;18.40;63.45
12213;BME280;6169;44.158;22.788;2023-05-22T01:17:40;100952.66;;;18.35;63.01
12213;BME280;6169;44.158;22.788;2023-05-22T01:28:29;100962.72;;;17.75;66.51
12213;BME280;6169;44.158;22.788;2023-05-22T01:33:44;100968.16;;;18.05;65.33
12213;BME280;6169;44.158;22.788;2023-05-22T01:38:47;100953.59;;;18.05;65.58
12213;BME280;6169;44.158;22.788;2023-05-22T01:43:50;100952.97;;;18.23;65.67
12213;BME280;6169;44.158;22.788;2023-05-22T01:48:54;100941.88;;;18.39;63.54
12213;BME280;6169;44.158;22.788;2023-05-22T01:54:00;100948.88;;;18.21;64.56
12213;BME280;6169;44.158;22.788;2023-05-22T01:59:16;100954.47;;;17.90;65.09
12213;BME280;6169;44.158;22.788;2023-05-22T02:04:22;100950.94;;;18.44;62.56
12213;BME280;6169;44.158;22.788;2023-05-22T02:09:27;100943.91;;;18.23;63.43
12213;BME280;6169;44.158;22.788;2023-05-22T02:14:31;100948.91;;;18.11;63.53
12213;BME280;6169;44.158;22.788;2023-05-22T02:19:35;100936.72;;;18.27;62.27
12213;BME280;6169;44.158;22.788;2023-05-22T02:24:37;100938.50;;;17.97;64.15
12213;BME280;6169;44.158;22.788;2023-05-22T02:29:39;100942.31;;;18.07;63.85
12213;BME280;6169;44.158;22.788;2023-05-22T02:34:43;100943.44;;;17.90;63.50
12213;BME280;6169;44.158;22.788;2023-05-22T02:39:45;100950.88;;;17.90;64.31
12213;BME280;6169;44.158;22.788;2023-05-22T02:44:47;100954.66;;;18.14;63.70
12213;BME280;6169;44.158;22.788;2023-05-22T02:49:51;100950.47;;;18.32;62.60
12213;BME280;6169;44.158;22.788;2023-05-22T02:54:53;100948.66;;;18.07;63.31
12213;BME280;6169;44.158;22.788;2023-05-22T02:59:55;100944.19;;;18.16;62.64
12213;BME280;6169;44.158;22.788;2023-05-22T03:05:00;100950.16;;;18.34;62.39
12213;BME280;6169;44.158;22.788;2023-05-22T03:10:02;100941.69;;;18.20;62.85
12213;BME280;6169;44.158;22.788;2023-05-22T03:15:05;100941.47;;;18.61;60.78
12213;BME280;6169;44.158;22.788;2023-05-22T03:20:10;100949.50;;;18.57;60.76
12213;BME280;6169;44.158;22.788;2023-05-22T03:25:16;100948.13;;;18.55;61.49
12213;BME280;6169;44.158;22.788;2023-05-22T03:30:20;100952.94;;;18.83;60.79
12213;BME280;6169;44.158;22.788;2023-05-22T03:35:23;100950.22;;;18.68;61.15
12213;BME280;6169;44.158;22.788;2023-05-22T03:40:26;100799.88;;;17.98;60.25
12213;BME280;6169;44.158;22.788;2023-05-22T03:45:28;100951.59;;;18.76;61.28
12213;BME280;6169;44.158;22.788;2023-05-22T03:50:31;100961.59;;;18.56;61.87
12213;BME280;6169;44.158;22.788;2023-05-22T03:55:34;100967.31;;;18.75;62.54
12213;BME280;6169;44.158;22.788;2023-05-22T04:00:36;100960.88;;;18.85;61.96
12213;BME280;6169;44.158;22.788;2023-05-22T04:05:40;100961.31;;;18.58;63.80
12213;BME280;6169;44.158;22.788;2023-05-22T04:10:43;100967.41;;;18.55;63.77
12213;BME280;6169;44.158;22.788;2023-05-22T04:15:46;100970.19;;;19.28;60.52
12213;BME280;6169;44.158;22.788;2023-05-22T04:20:50;100977.31;;;18.50;63.60
12213;BME280;6169;44.158;22.788;2023-05-22T04:25:53;100965.50;;;18.50;62.82
12213;BME280;6169;44.158;22.788;2023-05-22T04:30:55;100976.13;;;18.72;62.84
12213;BME280;6169;44.158;22.788;2023-05-22T04:35:59;100969.38;;;18.93;62.19
12213;BME280;6169;44.158;22.788;2023-05-22T04:41:02;100968.34;;;18.84;63.19
12213;BME280;6169;44.158;22.788;2023-05-22T04:46:04;100970.47;;;18.92;61.89
12213;BME280;6169;44.158;22.788;2023-05-22T04:51:09;100966.59;;;19.33;61.54
12213;BME280;6169;44.158;22.788;2023-05-22T04:56:12;100962.53;;;19.54;60.29
12213;BME280;6169;44.158;22.788;2023-05-22T05:01:14;100959.19;;;19.57;61.44
12213;BME280;6169;44.158;22.788;2023-05-22T05:06:18;100966.84;;;19.90;60.79
12213;BME280;6169;44.158;22.788;2023-05-22T05:11:21;100970.78;;;19.83;60.05
12213;BME280;6169;44.158;22.788;2023-05-22T05:16:24;100983.84;;;20.26;59.77
12213;BME280;6169;44.158;22.788;2023-05-22T05:21:27;100988.22;;;20.27;60.11
12213;BME280;6169;44.158;22.788;2023-05-22T05:26:32;100987.16;;;20.66;58.52
12213;BME280;6169;44.158;22.788;2023-05-22T05:31:34;100983.78;;;20.69;58.40
12213;BME280;6169;44.158;22.788;2023-05-22T05:36:38;100982.66;;;20.32;57.17
12213;BME280;6169;44.158;22.788;2023-05-22T05:41:40;100983.78;;;20.50;57.24
12213;BME280;6169;44.158;22.788;2023-05-22T05:46:42;100989.69;;;20.62;57.33
12213;BME280;6169;44.158;22.788;2023-05-22T05:51:46;100982.06;;;21.11;56.56
12213;BME280;6169;44.158;22.788;2023-05-22T05:56:48;100992.38;;;21.05;56.03
12213;BME280;6169;44.158;22.788;2023-05-22T06:01:50;100987.34;;;21.26;56.16
12213;BME280;6169;44.158;22.788;2023-05-22T06:06:54;100987.88;;;21.28;57.07
12213;BME280;6169;44.158;22.788;2023-05-22T06:11:56;100996.50;;;21.41;55.21
12213;BME280;6169;44.158;22.788;2023-05-22T06:16:58;100991.03;;;21.54;53.24
12213;BME280;6169;44.158;22.788;2023-05-22T06:22:02;101003.53;;;21.66;51.77
12213;BME280;6169;44.158;22.788;2023-05-22T06:27:04;100999.06;;;21.18;54.47
12213;BME280;6169;44.158;22.788;2023-05-22T06:32:07;100998.03;;;21.79;54.51
12213;BME280;6169;44.158;22.788;2023-05-22T06:37:10;100991.41;;;22.22;53.46
12213;BME280;6169;44.158;22.788;2023-05-22T06:42:13;100993.94;;;22.04;52.90
12213;BME280;6169;44.158;22.788;2023-05-22T06:47:15;100995.00;;;22.72;51.74
12213;BME280;6169;44.158;22.788;2023-05-22T06:52:19;101000.53;;;21.95;51.67
12213;BME280;6169;44.158;22.788;2023-05-22T06:57:21;100864.91;;;20.93;50.02
12213;BME280;6169;44.158;22.788;2023-05-22T07:02:23;101015.78;;;22.34;50.83
12213;BME280;6169;44.158;22.788;2023-05-22T07:07:27;101017.09;;;22.64;49.26
12213;BME280;6169;44.158;22.788;2023-05-22T07:12:29;101011.66;;;21.76;51.39
12213;BME280;6169;44.158;22.788;2023-05-22T07:17:31;101015.72;;;22.25;51.48
12213;BME280;6169;44.158;22.788;2023-05-22T07:22:35;101004.25;;;23.04;50.38
12213;BME280;6169;44.158;22.788;2023-05-22T07:27:38;101006.44;;;23.07;52.60
12213;BME280;6169;44.158;22.788;2023-05-22T07:32:40;101009.19;;;23.30;49.99
12213;BME280;6169;44.158;22.788;2023-05-22T07:37:44;100995.59;;;23.73;49.18
12213;BME280;6169;44.158;22.788;2023-05-22T07:42:46;100988.06;;;24.05;47.42
12213;BME280;6169;44.158;22.788;2023-05-22T07:47:48;100979.44;;;24.15;48.32
12213;BME280;6169;44.158;22.788;2023-05-22T07:52:52;100992.72;;;24.27;44.55
12213;BME280;6169;44.158;22.788;2023-05-22T07:57:54;100997.47;;;23.55;48.24
12213;BME280;6169;44.158;22.788;2023-05-22T08:02:56;101000.31;;;23.42;48.29
12213;BME280;6169;44.158;22.788;2023-05-22T08:08:00;100993.19;;;23.80;46.92
12213;BME280;6169;44.158;22.788;2023-05-22T08:13:03;101000.25;;;23.87;47.94
12213;BME280;6169;44.158;22.788;2023-05-22T08:18:06;100993.66;;;24.14;46.98
12213;BME280;6169;44.158;22.788;2023-05-22T08:23:10;100984.75;;;24.52;47.25
12213;BME280;6169;44.158;22.788;2023-05-22T08:28:12;100990.31;;;23.41;45.04
12213;BME280;6169;44.158;22.788;2023-05-22T08:33:14;100980.13;;;24.21;45.75
12213;BME280;6169;44.158;22.788;2023-05-22T08:38:18;100989.81;;;24.41;44.68
12213;BME280;6169;44.158;22.788;2023-05-22T08:43:20;100990.75;;;24.27;44.68
12213;BME280;6169;44.158;22.788;2023-05-22T08:48:23;100985.84;;;24.24;41.85
12213;BME280;6169;44.158;22.788;2023-05-22T08:53:28;100980.50;;;25.15;38.89
12213;BME280;6169;44.158;22.788;2023-05-22T08:58:34;100992.47;;;24.63;36.28
12213;BME280;6169;44.158;22.788;2023-05-22T09:03:36;100990.78;;;24.45;37.59
12213;BME280;6169;44.158;22.788;2023-05-22T09:08:40;101000.81;;;25.07;38.34
12213;BME280;6169;44.158;22.788;2023-05-22T09:13:43;100987.25;;;25.05;38.39
12213;BME280;6169;44.158;22.788;2023-05-22T09:18:45;100989.16;;;24.61;39.47
12213;BME280;6169;44.158;22.788;2023-05-22T09:23:50;100990.44;;;24.38;40.43
12213;BME280;6169;44.158;22.788;2023-05-22T09:28:52;100988.22;;;25.09;40.46
12213;BME280;6169;44.158;22.788;2023-05-22T09:33:55;100984.31;;;24.76;40.53
12213;BME280;6169;44.158;22.788;2023-05-22T09:39:01;100993.78;;;25.01;39.35
12213;BME280;6169;44.158;22.788;2023-05-22T09:44:14;100985.78;;;24.82;38.36
12213;BME280;6169;44.158;22.788;2023-05-22T09:49:16;100983.31;;;24.89;39.31
12213;BME280;6169;44.158;22.788;2023-05-22T09:54:22;100971.22;;;25.84;37.99
12213;BME280;6169;44.158;22.788;2023-05-22T09:59:27;100969.09;;;25.72;38.32
12213;BME280;6169;44.158;22.788;2023-05-22T10:04:32;100956.28;;;25.42;37.14
12213;BME280;6169;44.158;22.788;2023-05-22T10:09:37;100956.31;;;25.80;38.47
12213;BME280;6169;44.158;22.788;2023-05-22T10:14:41;100958.56;;;27.21;36.70
12213;BME280;6169;44.158;22.788;2023-05-22T10:19:43;100964.69;;;26.60;35.24
12213;BME280;6169;44.158;22.788;2023-05-22T10:24:49;100959.19;;;26.52;36.63
12213;BME280;6169;44.158;22.788;2023-05-22T10:29:54;100954.91;;;26.03;36.03
12213;BME280;6169;44.158;22.788;2023-05-22T10:35:06;100953.00;;;26.67;35.21
12213;BME280;6169;44.158;22.788;2023-05-22T10:40:14;100945.81;;;26.15;35.35
12213;BME280;6169;44.158;22.788;2023-05-22T10:45:18;100938.59;;;26.44;35.26
12213;BME280;6169;44.158;22.788;2023-05-22T10:50:21;100936.19;;;26.76;35.27
12213;BME280;6169;44.158;22.788;2023-05-22T10:55:25;100930.41;;;27.02;34.97
12213;BME280;6169;44.158;22.788;2023-05-22T11:00:28;100924.78;;;26.68;34.58
12213;BME280;6169;44.158;22.788;2023-05-22T11:05:35;100907.31;;;27.38;35.40
12213;BME280;6169;44.158;22.788;2023-05-22T11:10:54;100906.88;;;26.90;36.44
12213;BME280;6169;44.158;22.788;2023-05-22T11:16:03;100889.81;;;27.62;34.27
12213;BME280;6169;44.158;22.788;2023-05-22T11:21:09;100882.59;;;27.73;33.19
12213;BME280;6169;44.158;22.788;2023-05-22T11:26:21;100879.97;;;26.74;34.49
12213;BME280;6169;44.158;22.788;2023-05-22T11:31:24;100876.28;;;26.19;34.76
12213;BME280;6169;44.158;22.788;2023-05-22T11:36:26;100871.25;;;28.19;33.38
12213;BME280;6169;44.158;22.788;2023-05-22T11:41:32;100831.50;;;27.11;35.25
12213;BME280;6169;44.158;22.788;2023-05-22T11:46:34;100874.47;;;26.98;34.46
12213;BME280;6169;44.158;22.788;2023-05-22T11:51:37;100867.00;;;26.57;35.12
12213;BME280;6169;44.158;22.788;2023-05-22T11:56:43;100858.09;;;28.19;33.56
12213;BME280;6169;44.158;22.788;2023-05-22T12:01:48;100853.47;;;28.80;33.46
12213;BME280;6169;44.158;22.788;2023-05-22T12:06:50;100856.75;;;28.54;32.05
12213;BME280;6169;44.158;22.788;2023-05-22T12:11:55;100850.19;;;29.06;31.60
12213;BME280;6169;44.158;22.788;2023-05-22T12:16:57;100851.25;;;28.45;29.42
12213;BME280;6169;44.158;22.788;2023-05-22T12:22:02;100842.91;;;28.04;30.74
12213;BME280;6169;44.158;22.788;2023-05-22T12:27:08;100830.53;;;28.74;31.70
12213;BME280;6169;44.158;22.788;2023-05-22T12:32:11;100702.31;;;28.60;30.80
12213;BME280;6169;44.158;22.788;2023-05-22T12:37:20;100827.38;;;28.76;31.30
12213;BME280;6169;44.158;22.788;2023-05-22T12:42:26;100822.97;;;28.90;31.13
12213;BME280;6169;44.158;22.788;2023-05-22T12:47:29;100815.75;;;28.45;31.32
12213;BME280;6169;44.158;22.788;2023-05-22T12:52:31;100808.06;;;28.14;31.81
12213;BME280;6169;44.158;22.788;2023-05-22T12:57:36;100808.03;;;29.14;31.17
12213;BME280;6169;44.158;22.788;2023-05-22T13:02:38;100801.97;;;29.79;30.05
12213;BME280;6169;44.158;22.788;2023-05-22T13:07:40;100800.97;;;29.36;28.91
12213;BME280;6169;44.158;22.788;2023-05-22T13:12:44;100779.19;;;28.10;31.86
12213;BME280;6169;44.158;22.788;2023-05-22T13:17:48;100793.47;;;28.49;31.05
12213;BME280;6169;44.158;22.788;2023-05-22T13:22:50;100781.88;;;28.35;31.38
12213;BME280;6169;44.158;22.788;2023-05-22T13:27:54;100785.78;;;27.41;31.60
12213;BME280;6169;44.158;22.788;2023-05-22T13:32:57;100778.41;;;27.85;30.70
12213;BME280;6169;44.158;22.788;2023-05-22T13:37:59;100789.88;;;28.20;30.06
12213;BME280;6169;44.158;22.788;2023-05-22T13:43:03;100788.50;;;28.14;29.74
12213;BME280;6169;44.158;22.788;2023-05-22T13:48:05;100780.63;;;28.92;30.12
12213;BME280;6169;44.158;22.788;2023-05-22T13:53:08;100773.16;;;29.28;29.87
12213;BME280;6169;44.158;22.788;2023-05-22T13:58:11;100768.56;;;29.20;29.62
12213;BME280;6169;44.158;22.788;2023-05-22T14:03:14;100762.22;;;28.91;29.83
12213;BME280;6169;44.158;22.788;2023-05-22T14:08:17;100758.34;;;29.98;28.63
12213;BME280;6169;44.158;22.788;2023-05-22T14:13:20;100755.84;;;30.12;28.65
12213;BME280;6169;44.158;22.788;2023-05-22T14:18:23;100759.22;;;30.41;27.78
12213;BME280;6169;44.158;22.788;2023-05-22T14:23:25;100749.34;;;30.08;27.92
12213;BME280;6169;44.158;22.788;2023-05-22T14:28:29;100745.97;;;29.12;27.87
12213;BME280;6169;44.158;22.788;2023-05-22T14:33:32;100733.53;;;29.10;28.12
12213;BME280;6169;44.158;22.788;2023-05-22T14:38:34;100726.75;;;28.95;28.82
12213;BME280;6169;44.158;22.788;2023-05-22T14:43:38;100716.47;;;28.99;29.33
12213;BME280;6169;44.158;22.788;2023-05-22T14:48:40;100715.25;;;29.32;28.96
12213;BME280;6169;44.158;22.788;2023-05-22T14:53:42;100700.31;;;29.24;29.05
12213;BME280;6169;44.158;22.788;2023-05-22T14:58:46;100705.25;;;29.31;29.28
12213;BME280;6169;44.158;22.788;2023-05-22T15:03:49;100698.88;;;28.83;28.82
12213;BME280;6169;44.158;22.788;2023-05-22T15:08:51;100700.72;;;28.31;29.93
12213;BME280;6169;44.158;22.788;2023-05-22T15:13:55;100700.41;;;28.80;29.76
12213;BME280;6169;44.158;22.788;2023-05-22T15:18:57;100692.56;;;28.70;28.96
12213;BME280;6169;44.158;22.788;2023-05-22T15:23:59;100702.03;;;28.65;29.54
12213;BME280;6169;44.158;22.788;2023-05-22T15:29:03;100711.25;;;28.22;30.65
12213;BME280;6169;44.158;22.788;2023-05-22T15:34:05;100708.03;;;28.20;29.59
12213;BME280;6169;44.158;22.788;2023-05-22T15:39:08;100703.47;;;28.75;28.97
12213;BME280;6169;44.158;22.788;2023-05-22T15:44:12;100705.09;;;29.59;29.08
12213;BME280;6169;44.158;22.788;2023-05-22T15:49:14;100704.97;;;28.41;30.15
12213;BME280;6169;44.158;22.788;2023-05-22T15:54:16;100703.38;;;27.84;31.42
12213;BME280;6169;44.158;22.788;2023-05-22T15:59:20;100708.44;;;28.06;31.06
12213;BME280;6169;44.158;22.788;2023-05-22T16:04:22;100711.50;;;28.17;31.17
12213;BME280;6169;44.158;22.788;2023-05-22T16:09:24;100712.63;;;28.44;31.02
12213;BME280;6169;44.158;22.788;2023-05-22T16:14:28;100715.28;;;28.84;31.18
12213;BME280;6169;44.158;22.788;2023-05-22T16:19:30;100718.28;;;28.76;29.97
12213;BME280;6169;44.158;22.788;2023-05-22T16:24:33;100707.00;;;28.28;30.35
12213;BME280;6169;44.158;22.788;2023-05-22T16:29:37;100714.97;;;28.42;30.64
12213;BME280;6169;44.158;22.788;2023-05-22T16:34:39;100718.09;;;28.09;31.66
12213;BME280;6169;44.158;22.788;2023-05-22T16:39:44;100720.31;;;28.03;31.74
12213;BME280;6169;44.158;22.788;2023-05-22T16:44:48;100729.09;;;27.77;32.12
12213;BME280;6169;44.158;22.788;2023-05-22T16:49:50;100733.56;;;27.94;32.55
12213;BME280;6169;44.158;22.788;2023-05-22T16:54:52;100737.47;;;27.89;32.36
12213;BME280;6169;44.158;22.788;2023-05-22T16:59:56;100739.41;;;28.01;32.59
12213;BME280;6169;44.158;22.788;2023-05-22T17:04:58;100746.59;;;28.14;33.20
12213;BME280;6169;44.158;22.788;2023-05-22T17:10:00;100740.69;;;28.03;33.25
12213;BME280;6169;44.158;22.788;2023-05-22T17:15:05;100745.66;;;27.70;34.08
12213;BME280;6169;44.158;22.788;2023-05-22T17:20:08;100748.81;;;27.56;35.39
12213;BME280;6169;44.158;22.788;2023-05-22T17:25:12;100741.63;;;27.83;36.06
12213;BME280;6169;44.158;22.788;2023-05-22T17:30:16;100747.19;;;27.43;36.82
12213;BME280;6169;44.158;22.788;2023-05-22T17:35:18;100737.44;;;27.36;38.31
12213;BME280;6169;44.158;22.788;2023-05-22T17:40:20;100739.75;;;26.98;39.55
12213;BME280;6169;44.158;22.788;2023-05-22T17:45:25;100736.84;;;26.36;41.08
12213;BME280;6169;44.158;22.788;2023-05-22T17:50:27;100734.03;;;26.03;43.47
12213;BME280;6169;44.158;22.788;2023-05-22T17:55:31;100734.75;;;25.70;43.67
12213;BME280;6169;44.158;22.788;2023-05-22T18:00:35;100737.72;;;25.44;43.79
12213;BME280;6169;44.158;22.788;2023-05-22T18:05:37;100729.00;;;25.25;44.65
12213;BME280;6169;44.158;22.788;2023-05-22T18:10:40;100733.13;;;25.10;45.90
12213;BME280;6169;44.158;22.788;2023-05-22T18:15:45;100729.56;;;24.62;46.75
12213;BME280;6169;44.158;22.788;2023-05-22T18:20:48;100737.81;;;24.15;48.67
12213;BME280;6169;44.158;22.788;2023-05-22T18:25:51;100743.03;;;23.91;48.92
12213;BME280;6169;44.158;22.788;2023-05-22T18:30:56;100744.19;;;24.07;48.98
12213;BME280;6169;44.158;22.788;2023-05-22T18:35:59;100755.28;;;23.90;48.82
12213;BME280;6169;44.158;22.788;2023-05-22T18:41:05;100753.41;;;23.42;50.36
12213;BME280;6169;44.158;22.788;2023-05-22T18:46:10;100746.25;;;23.49;50.30
12213;BME280;6169;44.158;22.788;2023-05-22T18:51:14;100769.09;;;23.55;50.12
12213;BME280;6169;44.158;22.788;2023-05-22T18:56:20;100780.56;;;23.71;50.05
12213;BME280;6169;44.158;22.788;2023-05-22T19:01:25;100796.72;;;23.60;50.08
12213;BME280;6169;44.158;22.788;2023-05-22T19:06:28;100788.13;;;23.30;51.37
12213;BME280;6169;44.158;22.788;2023-05-22T19:11:31;100801.56;;;23.06;51.93
12213;BME280;6169;44.158;22.788;2023-05-22T19:16:36;100813.34;;;22.80;51.82
12213;BME280;6169;44.158;22.788;2023-05-22T19:21:40;100808.09;;;22.56;52.46
12213;BME280;6169;44.158;22.788;2023-05-22T19:26:43;100816.84;;;22.49;54.44
12213;BME280;6169;44.158;22.788;2023-05-22T19:31:47;100815.47;;;22.83;52.96
12213;BME280;6169;44.158;22.788;2023-05-22T19:36:49;100831.69;;;22.31;55.62
12213;BME280;6169;44.158;22.788;2023-05-22T19:41:57;100830.31;;;22.87;53.58
12213;BME280;6169;44.158;22.788;2023-05-22T19:47:01;100822.63;;;22.84;53.84
12213;BME280;6169;44.158;22.788;2023-05-22T19:52:03;100815.22;;;22.93;53.19
12213;BME280;6169;44.158;22.788;2023-05-22T19:57:06;100820.19;;;22.83;53.66
12213;BME280;6169;44.158;22.788;2023-05-22T20:02:10;100826.41;;;22.66;53.86
12213;BME280;6169;44.158;22.788;2023-05-22T20:07:12;100830.19;;;22.25;54.42
12213;BME280;6169;44.158;22.788;2023-05-22T20:12:15;100825.66;;;22.29;54.68
12213;BME280;6169;44.158;22.788;2023-05-22T20:17:19;100828.84;;;22.22;54.63
12213;BME280;6169;44.158;22.788;2023-05-22T20:22:22;100825.47;;;21.75;55.35
12213;BME280;6169;44.158;22.788;2023-05-22T20:27:24;100817.41;;;22.01;54.45
12213;BME280;6169;44.158;22.788;2023-05-22T20:32:28;100815.34;;;22.07;53.13
12213;BME280;6169;44.158;22.788;2023-05-22T20:37:30;100833.16;;;22.15;53.22
12213;BME280;6169;44.158;22.788;2023-05-22T20:42:34;100848.47;;;21.29;55.85
12213;BME280;6169;44.158;22.788;2023-05-22T20:47:38;100856.38;;;21.77;55.55
12213;BME280;6169;44.158;22.788;2023-05-22T20:52:40;100847.38;;;21.86;55.30
12213;BME280;6169;44.158;22.788;2023-05-22T20:57:45;100856.34;;;22.05;55.18
12213;BME280;6169;44.158;22.788;2023-05-22T21:02:49;100873.84;;;22.14;54.54
12213;BME280;6169;44.158;22.788;2023-05-22T21:07:51;100872.69;;;21.65;56.07
12213;BME280;6169;44.158;22.788;2023-05-22T21:12:53;100879.66;;;21.90;54.74
12213;BME280;6169;44.158;22.788;2023-05-22T21:17:57;100883.47;;;21.67;55.38
12213;BME280;6169;44.158;22.788;2023-05-22T21:22:59;100878.81;;;21.34;56.61
12213;BME280;6169;44.158;22.788;2023-05-22T21:28:01;100874.81;;;21.13;57.18
12213;BME280;6169;44.158;22.788;2023-05-22T21:33:05;100869.69;;;20.87;57.78
12213;BME280;6169;44.158;22.788;2023-05-22T21:38:07;100865.78;;;21.21;56.30
12213;BME280;6169;44.158;22.788;2023-05-22T21:43:09;100864.53;;;20.81;56.88
12213;BME280;6169;44.158;22.788;2023-05-22T21:48:13;100871.47;;;20.97;56.74
12213;BME280;6169;44.158;22.788;2023-05-22T21:53:15;100871.56;;;20.92;56.89
12213;BME280;6169;44.158;22.788;2023-05-22T21:58:17;100873.53;;;21.05;55.68
12213;BME280;6169;44.158;22.788;2023-05-22T22:03:21;100869.56;;;21.11;55.83
12213;BME280;6169;44.158;22.788;2023-05-22T22:08:23;100865.41;;;20.95;56.34
12213;BME280;6169;44.158;22.788;2023-05-22T22:13:27;100869.13;;;20.90;56.43
12213;BME280;6169;44.158;22.788;2023-05-22T22:18:31;100863.78;;;20.94;55.59
12213;BME280;6169;44.158;22.788;2023-05-22T22:23:34;100863.75;;;20.61;56.93
12213;BME280;6169;44.158;22.788;2023-05-22T22:28:36;100865.94;;;20.45;57.22
12213;BME280;6169;44.158;22.788;2023-05-22T22:33:40;100861.84;;;20.76;56.67
12213;BME280;6169;44.158;22.788;2023-05-22T22:38:42;100857.53;;;20.69;57.16
12213;BME280;6169;44.158;22.788;2023-05-22T22:43:44;100854.91;;;20.97;54.96
12213;BME280;6169;44.158;22.788;2023-05-22T22:48:48;100860.09;;;20.85;54.44
12213;BME280;6169;44.158;22.788;2023-05-22T22:53:50;100855.31;;;20.71;55.34
12213;BME280;6169;44.158;22.788;2023-05-22T22:58:53;100852.81;;;20.37;56.50
12213;BME280;6169;44.158;22.788;2023-05-22T23:03:56;100849.75;;;20.20;57.77
12213;BME280;6169;44.158;22.788;2023-05-22T23:08:58;100854.25;;;20.67;55.72
12213;BME280;6169;44.158;22.788;2023-05-22T23:14:02;100866.13;;;20.87;55.55
12213;BME280;6169;44.158;22.788;2023-05-22T23:19:08;100862.38;;;20.78;55.63
12213;BME280;6169;44.158;22.788;2023-05-22T23:24:11;100851.19;;;20.69;55.86
12213;BME280;6169;44.158;22.788;2023-05-22T23:29:13;100853.72;;;20.33;57.56
12213;BME280;6169;44.158;22.788;2023-05-22T23:34:17;100852.63;;;20.10;57.77
12213;BME280;6169;44.158;22.788;2023-05-22T23:39:19;100846.38;;;20.04;58.41
12213;BME280;6169;44.158;22.788;2023-05-22T23:44:22;100851.53;;;20.30;56.92
12213;BME280;6169;44.158;22.788;2023-05-22T23:49:25;100845.56;;;20.41;57.06
12213;BME280;6169;44.158;22.788;2023-05-22T23:54:27;100844.97;;;20.44;56.22
12213;BME280;6169;44.158;22.788;2023-05-22T23:59:29;100839.09;;;20.32;56.21
